Time;durP1;ratioP1;P1;durP2;ratioP2;P2;SDS_P1;SDS_P2;PMS_P1;PMS_P2;Temp;Humidity;BMP_temperature;BMP_pressure;BME280_temperature;BME280_humidity;BME280_pressure;Samples;Min_cycle;Max_cycle;Signal;HPM_P1;HPM_P2
2022/07/08 00:00:46;;;;;;;40.43;27.65;;;;;;;16.01;100.00;99516.04;1767666;80;20919;-69
2022/07/08 00:03:14;;;;;;;30.77;21.97;;;;;;;16.01;100.00;99514.13;1770239;80;20967;-68
2022/07/08 00:05:42;;;;;;;24.30;17.20;;;;;;;15.99;100.00;99511.45;1766910;80;21508;-68
2022/07/08 00:08:09;;;;;;;29.18;16.27;;;;;;;15.98;100.00;99522.05;1771707;80;21152;-69
2022/07/08 00:10:36;;;;;;;32.15;20.40;;;;;;;15.94;100.00;99525.06;1754815;80;20983;-69
2022/07/08 00:13:03;;;;;;;36.70;23.45;;;;;;;15.91;100.00;99515.63;1758152;80;20898;-71
2022/07/08 00:15:30;;;;;;;81.12;50.23;;;;;;;15.89;100.00;99511.59;1757942;80;20869;-69
2022/07/08 00:17:57;;;;;;;73.55;44.15;;;;;;;15.86;100.00;99511.63;1747576;80;21547;-69
2022/07/08 00:20:24;;;;;;;76.45;44.48;;;;;;;15.83;100.00;99508.16;1771518;80;21266;-68
2022/07/08 00:22:50;;;;;;;72.95;38.83;;;;;;;15.82;100.00;99512.73;1765954;80;20938;-70
2022/07/08 00:25:17;;;;;;;66.37;41.68;;;;;;;15.81;100.00;99510.34;1760974;80;20864;-68
2022/07/08 00:27:45;;;;;;;60.67;37.73;;;;;;;15.82;100.00;99514.64;1763623;80;21457;-70
2022/07/08 00:30:12;;;;;;;49.67;29.07;;;;;;;15.81;100.00;99517.10;1757963;80;20895;-69
2022/07/08 00:32:40;;;;;;;44.65;24.52;;;;;;;15.80;100.00;99516.83;1758682;80;21315;-68
2022/07/08 00:35:08;;;;;;;35.15;18.80;;;;;;;15.79;100.00;99518.73;1770354;80;21378;-68
2022/07/08 00:37:35;;;;;;;34.25;20.43;;;;;;;15.79;100.00;99520.09;1771733;81;21025;-69
2022/07/08 00:40:04;;;;;;;33.45;19.82;;;;;;;15.80;100.00;99517.66;1769700;81;21539;-68
2022/07/08 00:42:31;;;;;;;27.80;17.82;;;;;;;15.82;100.00;99515.44;1770331;81;21045;-67
2022/07/08 00:44:58;;;;;;;32.98;19.90;;;;;;;15.83;100.00;99508.16;1768915;81;21187;-68
2022/07/08 00:47:25;;;;;;;31.70;18.03;;;;;;;15.87;100.00;99509.16;1757874;80;20888;-69
2022/07/08 00:49:52;;;;;;;26.52;14.75;;;;;;;15.86;100.00;99502.16;1759009;81;20975;-69
2022/07/08 00:52:19;;;;;;;29.92;14.85;;;;;;;15.87;100.00;99509.16;1740170;80;20866;-68
2022/07/08 00:54:46;;;;;;;29.12;16.32;;;;;;;15.89;100.00;99506.17;1752599;80;20868;-70
2022/07/08 00:57:14;;;;;;;26.97;15.40;;;;;;;15.90;100.00;99511.31;1764224;80;21261;-68
2022/07/08 00:59:42;;;;;;;24.00;13.68;;;;;;;15.90;100.00;99509.95;1765863;80;20973;-68
2022/07/08 01:02:08;;;;;;;23.60;14.20;;;;;;;15.92;100.00;99507.75;1765294;80;20985;-68
2022/07/08 01:04:36;;;;;;;23.95;14.63;;;;;;;15.95;100.00;99511.25;1771523;80;21013;-69
2022/07/08 01:07:03;;;;;;;41.77;19.57;;;;;;;15.98;100.00;99510.66;1710282;80;21055;-68
2022/07/08 01:09:31;;;;;;;38.25;18.70;;;;;;;16.00;100.00;99509.83;1771571;80;21256;-69
2022/07/08 01:11:59;;;;;;;44.15;22.07;;;;;;;16.00;100.00;99509.83;1763207;80;20876;-70
2022/07/08 01:14:27;;;;;;;37.17;21.70;;;;;;;16.00;100.00;99511.18;1766318;80;21429;-68
2022/07/08 01:16:54;;;;;;;50.00;24.72;;;;;;;15.98;100.00;99509.86;1764723;80;20910;-68
2022/07/08 01:19:20;;;;;;;49.45;24.15;;;;;;;15.95;100.00;99513.13;1757512;81;20899;-69
2022/07/08 01:21:47;;;;;;;51.08;26.73;;;;;;;15.93;100.00;99511.28;1770433;80;22126;-68
2022/07/08 01:24:13;;;;;;;49.88;25.15;;;;;;;15.89;100.00;99506.98;1765964;80;20964;-68
2022/07/08 01:26:42;;;;;;;62.45;26.35;;;;;;;15.85;100.00;99507.32;1763490;80;20982;-68
2022/07/08 01:29:08;;;;;;;50.58;26.25;;;;;;;15.82;100.00;99507.88;1764932;80;21011;-68
2022/07/08 01:31:35;;;;;;;63.80;31.68;;;;;;;15.77;100.00;99515.51;1768532;80;20962;-69
2022/07/08 01:34:02;;;;;;;54.70;28.77;;;;;;;15.72;100.00;99503.95;1760330;81;21895;-70
2022/07/08 01:36:29;;;;;;;56.37;27.82;;;;;;;15.67;100.00;99504.77;1757920;80;20880;-69
2022/07/08 01:38:57;;;;;;;68.65;32.58;;;;;;;15.62;100.00;99503.48;1758651;80;25445;-67
2022/07/08 01:41:24;;;;;;;75.90;36.15;;;;;;;15.57;100.00;99502.20;1764122;81;20947;-68
2022/07/08 01:43:51;;;;;;;58.65;29.20;;;;;;;15.55;100.00;99510.58;1770576;80;21471;-69
2022/07/08 01:46:18;;;;;;;61.37;28.50;;;;;;;15.51;100.00;99503.36;1751596;81;22171;-69
2022/07/08 01:48:45;;;;;;;59.65;30.32;;;;;;;15.48;100.00;99503.36;1771375;81;21009;-68
2022/07/08 01:51:13;;;;;;;58.63;30.12;;;;;;;15.42;100.00;99500.47;1745066;80;21188;-67
2022/07/08 01:53:40;;;;;;;66.40;32.25;;;;;;;15.38;100.00;99502.92;1753426;80;20982;-67
2022/07/08 01:56:07;;;;;;;79.47;37.80;;;;;;;15.33;100.00;99503.53;1758747;80;20951;-70
2022/07/08 01:58:35;;;;;;;;;;;;;;;15.30;100.00;99506.26;1760942;80;21644;-70
2022/07/08 02:01:03;;;;;;;;;;;;;;;15.31;100.00;99507.06;1768689;80;20093;-68
2022/07/08 02:03:31;;;;;;;65.60;34.73;;;;;;;15.32;100.00;99509.48;1771605;80;20109;-69
2022/07/08 02:05:57;;;;;;;42.10;22.82;;;;;;;15.31;100.00;99509.24;1771407;80;21483;-69
2022/07/08 02:08:24;;;;;;;29.30;20.43;;;;;;;15.33;100.00;99515.70;1742539;80;21475;-68
2022/07/08 02:13:37;;;;;;;25.02;13.70;;;;;;;15.36;100.00;99521.87;1762013;81;20923;-71
2022/07/08 02:16:05;;;;;;;15.98;10.00;;;;;;;15.36;100.00;99513.24;1770567;80;20915;-69
2022/07/08 02:18:32;;;;;;;13.78;8.85;;;;;;;15.39;100.00;99513.22;1750398;80;20981;-70
2022/07/08 02:20:59;;;;;;;10.80;7.62;;;;;;;15.39;100.00;99513.22;1755423;80;21372;-70
2022/07/08 02:23:26;;;;;;;10.18;7.12;;;;;;;15.36;100.00;99509.70;1763225;81;21160;-70
2022/07/08 02:25:53;;;;;;;11.55;7.15;;;;;;;15.31;100.00;99505.70;1758613;80;20981;-71
2022/07/08 02:28:20;;;;;;;13.00;6.90;;;;;;;15.23;100.00;99507.94;1738103;80;20974;-69
2022/07/08 02:30:47;;;;;;;17.45;7.85;;;;;;;15.16;100.00;99509.37;1758381;80;20946;-70
2022/07/08 02:33:13;;;;;;;14.33;10.00;;;;;;;15.12;100.00;99516.45;1756666;80;20949;-70
2022/07/08 02:35:40;;;;;;;12.55;8.55;;;;;;;15.06;100.00;99508.91;1758127;80;21457;-71
2022/07/08 02:38:07;;;;;;;15.05;9.50;;;;;;;15.06;100.00;99511.63;1757356;80;20915;-71
2022/07/08 02:40:34;;;;;;;13.25;8.53;;;;;;;15.05;100.00;99511.92;1769832;81;20890;-68
2022/07/08 02:43:00;;;;;;;14.50;8.30;;;;;;;15.05;100.00;99512.72;1752259;80;20962;-68
2022/07/08 02:45:27;;;;;;;19.30;10.63;;;;;;;15.05;100.00;99514.08;1750931;81;20892;-70
2022/07/08 02:47:54;;;;;;;29.80;20.37;;;;;;;15.06;100.00;99517.03;1765453;80;21228;-69
2022/07/08 02:50:22;;;;;;;11.12;9.75;;;;;;;15.07;100.00;99511.90;1758831;80;20930;-70
2022/07/08 02:52:48;;;;;;;13.22;7.83;;;;;;;15.10;100.00;99514.58;1753598;80;20883;-69
2022/07/08 02:55:16;;;;;;;31.35;19.87;;;;;;;15.15;100.00;99519.94;1757147;81;21038;-70
2022/07/08 02:57:43;;;;;;;27.58;18.75;;;;;;;15.18;100.00;99522.06;1766753;80;21635;-69
2022/07/08 03:00:11;;;;;;;33.35;21.12;;;;;;;15.20;100.00;99528.00;1762154;80;21265;-69
2022/07/08 03:02:38;;;;;;;25.05;18.95;;;;;;;15.24;100.00;99529.05;1764891;80;21374;-70
2022/07/08 03:05:06;;;;;;;20.32;13.35;;;;;;;15.25;100.00;99529.30;1758431;80;20859;-69
2022/07/08 03:07:35;;;;;;;32.17;20.12;;;;;;;15.29;100.00;99526.84;1750085;81;20919;-68
2022/07/08 03:10:03;;;;;;;16.52;10.45;;;;;;;15.33;100.00;99528.66;1746256;80;20979;-70
2022/07/08 03:12:30;;;;;;;11.12;7.42;;;;;;;15.37;100.00;99543.23;1762454;81;21494;-69
2022/07/08 03:14:57;;;;;;;13.80;8.75;;;;;;;15.43;100.00;99553.45;1773251;80;20947;-67
2022/07/08 03:17:24;;;;;;;17.55;10.28;;;;;;;15.48;100.00;99552.59;1767124;80;21057;-70
2022/07/08 03:19:51;;;;;;;15.75;10.70;;;;;;;15.55;100.00;99555.77;1771468;80;20986;-70
2022/07/08 03:22:17;;;;;;;23.25;13.10;;;;;;;15.60;100.00;99557.88;1744801;81;21033;-69
2022/07/08 03:24:45;;;;;;;20.12;11.57;;;;;;;15.61;100.00;99563.56;1760379;80;21271;-69
2022/07/08 03:27:12;;;;;;;18.15;10.85;;;;;;;15.62;100.00;99561.66;1758366;80;20884;-70
2022/07/08 03:29:39;;;;;;;21.42;12.40;;;;;;;15.61;100.00;99566.81;1760562;80;20930;-70
2022/07/08 03:32:07;;;;;;;22.30;13.40;;;;;;;15.59;100.00;99569.00;1736449;81;20880;-70
2022/07/08 03:34:34;;;;;;;25.20;14.63;;;;;;;15.57;100.00;99567.92;1761140;80;21500;-71
2022/07/08 03:37:01;;;;;;;25.95;13.95;;;;;;;15.55;100.00;99566.05;1771056;81;21155;-68
2022/07/08 03:39:27;;;;;;;29.82;15.45;;;;;;;15.55;100.00;99566.05;1765114;80;20852;-70
2022/07/08 03:41:54;;;;;;;26.12;15.60;;;;;;;15.56;100.00;99566.32;1752219;80;21028;-69
2022/07/08 03:44:21;;;;;;;29.40;16.15;;;;;;;15.60;100.00;99567.34;1760539;80;21484;-70
2022/07/08 03:46:47;;;;;;;30.23;16.55;;;;;;;15.64;100.00;99569.73;1738072;81;20883;-69
2022/07/08 03:49:14;;;;;;;22.70;13.85;;;;;;;15.69;100.00;99570.23;1770641;80;21273;-68
2022/07/08 03:51:41;;;;;;;15.40;10.88;;;;;;;15.75;100.00;99575.07;1758574;80;21012;-70
2022/07/08 03:54:07;;;;;;;18.95;12.40;;;;;;;15.81;100.00;99572.03;1745641;81;21017;-70
2022/07/08 03:56:34;;;;;;;19.12;12.37;;;;;;;15.89;100.00;99574.64;1763270;80;21465;-69
2022/07/08 03:59:01;;;;;;;23.27;13.08;;;;;;;16.00;100.00;99569.94;1759905;80;20959;-70
2022/07/08 04:01:27;;;;;;;20.32;13.58;;;;;;;16.14;100.00;99575.43;1765042;80;21161;-68
2022/07/08 04:03:54;;;;;;;17.52;12.50;;;;;;;16.28;100.00;99579.05;1767264;80;20887;-68
2022/07/08 04:06:21;;;;;;;18.25;11.73;;;;;;;16.41;100.00;99578.34;1756836;80;20963;-69
2022/07/08 04:08:48;;;;;;;22.30;11.87;;;;;;;16.53;100.00;99579.80;1745200;81;20933;-69
2022/07/08 04:11:15;;;;;;;14.38;10.85;;;;;;;16.64;100.00;99583.99;1764296;80;21459;-69
2022/07/08 04:13:42;;;;;;;14.07;9.90;;;;;;;16.75;100.00;99588.14;1754384;80;21249;-68
2022/07/08 04:16:12;;;;;;;12.88;7.97;;;;;;;16.83;100.00;99584.82;1743374;81;20922;-71
2022/07/08 04:18:39;;;;;;;16.23;8.63;;;;;;;16.92;100.00;99592.52;1765048;80;20930;-69
2022/07/08 04:21:08;;;;;;;14.65;8.23;;;;;;;17.01;100.00;99591.88;1771150;80;28012;-69
2022/07/08 04:23:35;;;;;;;16.23;9.68;;;;;;;17.07;100.00;99596.09;1768100;81;20899;-70
2022/07/08 04:26:02;;;;;;;15.50;11.05;;;;;;;17.16;100.00;99592.17;1743910;80;21550;-70
2022/07/08 04:28:29;;;;;;;16.80;9.38;;;;;;;17.20;100.00;99595.36;1759348;81;20867;-69
2022/07/08 04:30:56;;;;;;;21.07;12.28;;;;;;;17.16;100.00;99591.62;1764207;80;20863;-71
2022/07/08 04:33:23;;;;;;;25.62;14.33;;;;;;;17.17;100.00;99596.48;1770096;81;20875;-67
2022/07/08 04:35:50;;;;;;;36.00;17.65;;;;;;;17.27;100.00;99597.66;1757601;80;20932;-68
2022/07/08 04:38:17;;;;;;;34.25;16.87;;;;;;;17.28;100.00;99600.65;1757129;80;22059;-69
2022/07/08 04:40:45;;;;;;;30.32;15.05;;;;;;;17.32;100.00;99594.34;1755503;80;20977;-67
2022/07/08 04:43:12;;;;;;;28.23;13.88;;;;;;;17.38;100.00;99602.39;1769806;81;20966;-68
2022/07/08 04:45:40;;;;;;;27.10;13.22;;;;;;;17.45;100.00;99605.52;1760180;80;20948;-69
2022/07/08 04:48:07;;;;;;;21.82;10.45;;;;;;;17.58;100.00;99598.75;1760076;81;21516;-69
2022/07/08 04:50:34;;;;;;;18.73;10.95;;;;;;;17.60;100.00;99597.66;1757254;80;21254;-68
2022/07/08 04:53:01;;;;;;;17.52;11.08;;;;;;;17.58;100.00;99597.95;1764593;80;20926;-69
2022/07/08 04:55:28;;;;;;;17.62;9.75;;;;;;;17.51;100.00;99591.55;1757122;80;20886;-69
2022/07/08 04:57:58;;;;;;;10.50;8.85;;;;;;;17.49;100.00;99587.52;1737835;80;20943;-69
2022/07/08 05:00:25;;;;;;;17.05;8.28;;;;;;;17.54;100.00;99588.26;1753450;80;20884;-68
2022/07/08 05:02:52;;;;;;;12.43;7.25;;;;;;;17.53;100.00;99589.91;1742958;81;21102;-70
2022/07/08 05:05:19;;;;;;;7.67;5.87;;;;;;;17.61;100.00;99589.76;1747011;80;20871;-70
2022/07/08 05:07:47;;;;;;;6.53;5.70;;;;;;;17.73;100.00;99590.88;1767132;80;20971;-72
2022/07/08 05:10:17;;;;;;;6.03;5.42;;;;;;;17.88;100.00;99598.52;1757345;80;21067;-70
2022/07/08 05:12:45;;;;;;;6.20;5.60;;;;;;;18.17;100.00;99598.21;1726881;81;21493;-70
2022/07/08 05:15:12;;;;;;;5.95;5.37;;;;;;;18.17;100.00;99598.21;1758732;80;21151;-69
2022/07/08 05:17:40;;;;;;;6.67;5.50;;;;;;;18.29;100.00;99596.34;1757686;80;27248;-70
2022/07/08 05:20:10;;;;;;;6.58;5.55;;;;;;;18.48;100.00;99593.50;1764237;80;20919;-68
2022/07/08 05:22:37;;;;;;;7.80;6.03;;;;;;;18.61;100.00;99592.66;1767233;80;20985;-68
2022/07/08 05:25:06;;;;;;;24.00;13.80;;;;;;;18.71;100.00;99593.78;1771069;80;20927;-69
2022/07/08 05:27:33;;;;;;;11.78;7.60;;;;;;;18.91;100.00;99585.73;1740338;80;21246;-68
2022/07/08 05:29:59;;;;;;;7.47;5.97;;;;;;;19.08;100.00;99586.98;1747387;81;21565;-70
2022/07/08 05:32:27;;;;;;;6.30;5.70;;;;;;;19.28;100.00;99593.30;1760221;80;20859;-68
2022/07/08 05:34:54;;;;;;;9.68;5.80;;;;;;;19.70;100.00;99592.51;1764260;80;20991;-69
2022/07/08 05:37:20;;;;;;;8.93;6.12;;;;;;;19.90;100.00;99602.04;1753612;80;20986;-70
2022/07/08 05:39:47;;;;;;;12.07;6.62;;;;;;;19.82;100.00;99595.45;1752319;80;22169;-73
2022/07/08 05:42:14;;;;;;;16.32;8.70;;;;;;;19.78;100.00;99590.37;1758534;80;20914;-70
2022/07/08 05:44:41;;;;;;;5.67;5.05;;;;;;;19.69;100.00;99591.69;1763756;80;21016;-70
2022/07/08 05:47:09;;;;;;;;;;;;;;;20.15;100.00;99596.99;1759405;80;20971;-69
2022/07/08 05:49:36;;;;;;;7.73;5.20;;;;;;;20.95;100.00;99608.52;1772695;80;20125;-69
2022/07/08 05:52:04;;;;;;;6.07;4.27;;;;;;;21.59;100.00;99611.33;1769031;81;21270;-69
2022/07/08 05:54:32;;;;;;;9.93;5.03;;;;;;;21.91;100.00;99611.86;1757916;81;21675;-70
2022/07/08 05:57:00;;;;;;;6.40;4.00;;;;;;;22.22;100.00;99612.95;1757019;81;21525;-70
2022/07/08 05:59:27;;;;;;;7.40;4.33;;;;;;;22.08;100.00;99611.55;1758221;81;20891;-70
2022/07/08 06:01:55;;;;;;;6.53;4.15;;;;;;;22.12;100.00;99620.14;1746215;80;20912;-73
2022/07/08 06:04:22;;;;;;;5.92;3.90;;;;;;;22.45;100.00;99627.13;1760802;80;21408;-68
2022/07/08 06:06:49;;;;;;;5.97;3.92;;;;;;;22.60;100.00;99625.73;1760444;80;20991;-70
2022/07/08 06:09:16;;;;;;;7.07;4.00;;;;;;;22.47;100.00;99623.50;1766983;80;20922;-70
2022/07/08 06:11:43;;;;;;;5.00;3.70;;;;;;;22.03;100.00;99622.11;1753035;80;20950;-70
2022/07/08 06:14:10;;;;;;;4.00;3.17;;;;;;;22.11;100.00;99612.25;1765326;80;21578;-69
2022/07/08 06:16:38;;;;;;;4.08;3.35;;;;;;;22.41;100.00;99626.75;1767380;81;20879;-69
2022/07/08 06:19:05;;;;;;;6.50;3.30;;;;;;;22.65;100.00;99628.85;1759161;80;20910;-70
2022/07/08 06:21:32;;;;;;;3.87;3.10;;;;;;;22.93;100.00;99633.23;1760830;80;21042;-70
2022/07/08 06:24:00;;;;;;;5.42;2.87;;;;;;;22.92;100.00;99634.93;1726524;80;21060;-68
2022/07/08 06:26:28;;;;;;;6.53;3.10;;;;;;;22.64;100.00;99627.26;1769214;80;20948;-69
2022/07/08 06:28:56;;;;;;;9.05;2.95;;;;;;;22.29;100.00;99624.72;1729708;80;21311;-69
2022/07/08 06:31:23;;;;;;;5.33;3.02;;;;;;;21.97;100.00;99616.57;1756840;80;21402;-68
2022/07/08 06:33:56;;;;;;;4.85;3.08;;;;;;;21.68;100.00;99615.95;1749388;81;20934;-68
2022/07/08 06:36:18;;;;;;;3.72;3.25;;;;;;;21.33;100.00;99616.02;1765606;80;21417;-68
2022/07/08 06:38:46;;;;;;;6.90;3.45;;;;;;;21.05;100.00;99615.01;1764720;80;20883;-69
2022/07/08 06:41:12;;;;;;;7.03;4.22;;;;;;;20.91;100.00;99615.73;1777316;80;21162;-65
2022/07/08 06:43:39;;;;;;;8.48;3.77;;;;;;;20.76;100.00;99608.83;1785041;80;21461;-66
2022/07/08 06:46:06;;;;;;;6.60;4.05;;;;;;;20.61;100.00;99606.58;1759529;80;20974;-67
2022/07/08 06:48:32;;;;;;;13.55;4.40;;;;;;;20.51;100.00;99606.30;1734079;80;20955;-67
2022/07/08 06:50:59;;;;;;;6.25;4.33;;;;;;;20.51;100.00;99611.19;1771371;80;20962;-68
2022/07/08 06:53:26;;;;;;;4.33;3.90;;;;;;;20.46;100.00;99615.99;1771779;80;21394;-70
2022/07/08 06:55:53;;;;;;;5.97;4.13;;;;;;;20.48;100.00;99609.09;1764364;80;21499;-69
2022/07/08 06:58:19;;;;;;;5.55;3.92;;;;;;;20.65;100.00;99617.90;1753324;80;20886;-68
2022/07/08 07:00:46;;;;;;;6.20;4.42;;;;;;;21.30;100.00;99620.20;1750431;81;20980;-70
2022/07/08 07:03:13;;;;;;;8.43;3.92;;;;;;;21.90;100.00;99615.73;1758702;80;21048;-68
2022/07/08 07:05:39;;;;;;;5.40;3.37;;;;;;;22.41;100.00;99616.60;1710568;81;21153;-69
2022/07/08 07:08:06;;;;;;;5.60;3.08;;;;;;;22.64;100.00;99619.05;1764395;80;20922;-68
2022/07/08 07:10:36;;;;;;;3.05;2.65;;;;;;;22.76;100.00;99618.30;1766384;79;20987;-69
2022/07/08 07:13:02;;;;;;;4.97;3.12;;;;;;;22.81;100.00;99618.92;1758457;80;20928;-69
2022/07/08 07:15:29;;;;;;;3.40;2.90;;;;;;;22.39;100.00;99620.80;1757549;80;20988;-68
2022/07/08 07:17:57;;;;;;;5.33;3.00;;;;;;;22.29;100.00;99617.88;1723302;81;39247;-68
2022/07/08 07:20:25;;;;;;;5.83;2.62;;;;;;;22.57;100.00;99612.73;1694556;82;21498;-68
2022/07/08 07:22:52;;;;;;;5.20;3.30;;;;;;;22.86;96.22;99615.98;1685237;84;20941;-65
2022/07/08 07:25:20;;;;;;;4.90;2.80;;;;;;;23.04;96.42;99618.59;1688967;84;20972;-67
2022/07/08 07:27:47;;;;;;;4.97;3.00;;;;;;;23.06;84.85;99606.17;1689687;83;20920;-72
2022/07/08 07:30:14;;;;;;;3.72;2.20;;;;;;;23.09;89.02;99604.70;1691030;83;27145;-70
2022/07/08 08:26:58;;;;;;;4.90;1.90;;;;;;;23.91;63.70;99591.11;1738077;81;21102;-66
2022/07/08 08:29:25;;;;;;;3.58;1.60;;;;;;;24.83;54.79;99589.41;1731719;81;21483;-68
2022/07/08 08:31:52;;;;;;;3.90;1.60;;;;;;;24.93;55.09;99585.58;1732756;81;20932;-69
2022/07/08 08:34:18;;;;;;;2.22;1.40;;;;;;;24.58;55.62;99584.78;1728861;81;20930;-69
2022/07/08 08:36:45;;;;;;;3.87;2.80;;;;;;;24.45;58.32;99576.33;1721802;82;20972;-66
2022/07/08 08:39:13;;;;;;;3.00;2.15;;;;;;;24.24;56.66;99577.05;1741723;81;21219;-70
2022/07/08 08:41:40;;;;;;;4.08;1.37;;;;;;;24.28;56.54;99576.59;1728328;81;20938;-67
2022/07/08 08:44:07;;;;;;;2.45;1.40;;;;;;;24.43;56.23;99569.59;1713214;82;20897;-67
2022/07/08 08:46:34;;;;;;;1.80;1.25;;;;;;;24.68;58.86;99569.77;1743087;81;20944;-68
2022/07/08 08:49:01;;;;;;;2.15;1.90;;;;;;;25.09;54.79;99579.36;1738428;81;20948;-71
2022/07/08 08:51:28;;;;;;;6.58;1.90;;;;;;;25.19;53.05;99573.38;1733507;81;21172;-67
2022/07/08 08:53:56;;;;;;;7.13;1.20;;;;;;;25.41;52.70;99574.74;1744295;81;21007;-65
2022/07/08 08:56:23;;;;;;;5.08;1.30;;;;;;;25.25;48.77;99581.57;1734787;81;20968;-70
2022/07/08 08:58:50;;;;;;;1.75;1.35;;;;;;;24.73;49.56;99576.97;1735760;81;21451;-67
2022/07/08 09:01:18;;;;;;;2.95;1.12;;;;;;;24.69;49.43;99571.94;1729660;81;20892;-68
2022/07/08 09:03:45;;;;;;;3.72;1.60;;;;;;;24.70;49.96;99568.06;1736280;81;21791;-70
2022/07/08 09:06:12;;;;;;;1.17;1.10;;;;;;;24.62;50.92;99560.75;1735592;81;20946;-68
2022/07/08 09:08:41;;;;;;;5.87;1.75;;;;;;;24.73;51.54;99563.24;1727183;81;21566;-68
2022/07/08 09:11:08;;;;;;;3.20;1.50;;;;;;;25.00;52.49;99558.32;1731397;81;22916;-68
2022/07/08 09:13:37;;;;;;;1.75;1.45;;;;;;;25.18;52.54;99564.90;1737232;81;21054;-66
2022/07/08 09:16:05;;;;;;;1.95;1.40;;;;;;;25.24;51.63;99569.00;1717615;82;21352;-72
2022/07/08 09:18:35;;;;;;;5.95;1.40;;;;;;;25.54;48.51;99561.14;1738104;81;21004;-70
2022/07/08 09:21:02;;;;;;;2.27;1.20;;;;;;;25.92;47.26;99568.55;1739823;81;21430;-69
2022/07/08 09:23:35;;;;;;;2.00;1.40;;;;;;;26.28;48.65;99559.97;1730365;81;21026;-67
2022/07/08 09:26:04;;;;;;;4.83;1.90;;;;;;;26.48;47.25;99565.50;1738030;81;20959;-68
2022/07/08 09:28:39;;;;;;;5.28;1.25;;;;;;;26.35;44.14;99565.42;1704876;82;21295;-68
2022/07/08 09:31:09;;;;;;;3.92;1.30;;;;;;;25.85;44.63;99564.49;1718112;83;20857;-67
2022/07/08 09:33:36;;;;;;;1.72;0.90;;;;;;;25.71;44.33;99568.81;1729129;82;20920;-68
2022/07/08 09:36:05;;;;;;;2.70;1.10;;;;;;;25.48;44.96;99572.73;1743893;81;20969;-67
2022/07/08 09:38:37;;;;;;;2.10;1.00;;;;;;;25.66;44.70;99569.88;1732112;81;21155;-71
2022/07/08 09:41:20;;;;;;;7.33;1.15;;;;;;;25.68;42.86;99570.91;1739046;81;21460;-71
2022/07/08 09:43:49;;;;;;;1.47;1.10;;;;;;;25.59;43.66;99572.45;1729741;81;21435;-70
2022/07/08 09:46:16;;;;;;;3.75;1.30;;;;;;;25.57;44.56;99563.17;1726536;81;21000;-71
2022/07/08 13:16:50;;;;;;;4.72;1.87;;;;;;;23.48;55.76;99490.25;1882783;75;23974;-70
2022/07/08 13:19:17;;;;;;;7.70;1.77;;;;;;;23.36;55.43;99492.97;1833933;76;20878;-69
2022/07/08 13:21:44;;;;;;;5.70;1.82;;;;;;;23.29;55.94;99499.80;1833435;76;21786;-69
2022/07/08 13:24:11;;;;;;;3.00;1.60;;;;;;;23.24;57.12;99491.80;1846460;76;21479;-68
2022/07/08 13:26:39;;;;;;;1.80;1.70;;;;;;;23.17;58.22;99498.41;1825064;76;21509;-68
2022/07/08 13:29:06;;;;;;;4.35;1.75;;;;;;;23.12;59.92;99494.52;1843635;77;21724;-68
2022/07/08 13:31:33;;;;;;;2.90;1.70;;;;;;;23.04;59.75;99491.31;1843639;77;20977;-69
2022/07/08 13:34:00;;;;;;;4.87;1.75;;;;;;;23.00;60.53;99488.44;1859583;76;21204;-69
2022/07/08 13:36:27;;;;;;;2.12;1.90;;;;;;;22.99;61.51;99490.96;1850796;77;20906;-70
2022/07/08 13:38:54;;;;;;;2.60;1.75;;;;;;;23.06;62.74;99493.95;1804582;77;20930;-73
2022/07/08 13:41:26;;;;;;;4.28;1.92;;;;;;;23.00;65.42;99489.02;1828729;76;20836;-70
2022/07/08 13:43:52;;;;;;;4.08;1.50;;;;;;;22.91;65.11;99486.36;1833923;76;20858;-71
2022/07/08 13:46:19;;;;;;;1.62;1.40;;;;;;;22.87;68.16;99487.58;1861552;77;21237;-70
2022/07/08 13:48:45;;;;;;;2.27;1.75;;;;;;;22.85;67.81;99482.22;1839172;76;20901;-70
2022/07/08 13:51:13;;;;;;;4.60;2.03;;;;;;;22.90;68.68;99484.16;1837823;76;20965;-68
2022/07/08 13:53:39;;;;;;;2.25;1.77;;;;;;;22.92;67.78;99480.31;1827345;76;21039;-71
2022/07/08 13:56:07;;;;;;;1.67;1.57;;;;;;;22.86;68.09;99487.37;1837797;76;21029;-70
2022/07/08 13:58:34;;;;;;;4.17;2.15;;;;;;;22.92;67.23;99482.47;1830118;76;21191;-70
2022/07/08 14:01:02;;;;;;;2.00;1.70;;;;;;;22.96;65.56;99481.24;1837257;76;20852;-71
2022/07/08 14:03:31;;;;;;;7.58;4.10;;;;;;;22.98;64.02;99480.34;1810279;78;20872;-71
2022/07/08 14:05:58;;;;;;;63.48;30.57;;;;;;;23.06;64.69;99478.89;1828983;78;20882;-69
2022/07/08 14:08:26;;;;;;;7.22;3.67;;;;;;;23.21;64.43;99471.16;1784310;79;20906;-70
2022/07/08 14:10:53;;;;;;;2.95;1.90;;;;;;;23.21;60.96;99478.80;1827796;78;21232;-69
2022/07/08 14:13:20;;;;;;;4.67;2.00;;;;;;;23.31;65.33;99478.93;1786364;80;21567;-68
2022/07/08 14:15:47;;;;;;;4.10;1.75;;;;;;;23.56;64.56;99479.73;1793825;79;21409;-69
2022/07/08 14:18:13;;;;;;;2.87;1.72;;;;;;;23.87;60.25;99481.13;1789131;79;20923;-71
2022/07/08 14:20:41;;;;;;;3.47;1.45;;;;;;;23.88;57.92;99473.13;1782487;80;20982;-66
2022/07/08 14:23:08;;;;;;;4.45;1.62;;;;;;;23.65;58.59;99480.42;1790006;79;21898;-69
2022/07/08 14:25:35;;;;;;;4.85;3.05;;;;;;;23.71;62.21;99479.62;1783593;80;20872;-71
2022/07/08 14:28:02;;;;;;;3.02;2.72;;;;;;;23.82;63.60;99484.91;1784279;79;21511;-70
2022/07/08 14:30:28;;;;;;;2.77;2.08;;;;;;;23.88;57.46;99486.25;1792118;79;20931;-70
2022/07/08 14:32:56;;;;;;;4.60;1.35;;;;;;;24.43;54.57;99485.92;1790430;79;20874;-72
2022/07/08 14:35:23;;;;;;;4.70;2.67;;;;;;;24.48;51.93;99486.50;1783124;80;21921;-71
2022/07/08 14:37:51;;;;;;;4.12;2.40;;;;;;;24.47;53.40;99479.40;1784570;79;20915;-72
2022/07/08 14:40:18;;;;;;;4.15;2.02;;;;;;;24.23;53.38;99482.19;1791900;79;20889;-71
2022/07/08 14:42:45;;;;;;;6.45;2.70;;;;;;;23.93;54.39;99485.22;1782573;80;20911;-72
2022/07/08 14:45:12;;;;;;;6.47;3.80;;;;;;;23.80;56.72;99489.92;1781115;79;20868;-72
2022/07/08 14:47:41;;;;;;;5.90;2.90;;;;;;;23.91;58.94;99490.25;1754577;80;21170;-71
2022/07/08 14:50:08;;;;;;;5.20;2.90;;;;;;;24.00;57.53;99488.77;1787608;79;21010;-72
2022/07/08 14:52:35;;;;;;;10.15;3.70;;;;;;;23.97;59.58;99484.77;1791424;79;21429;-72
2022/07/08 14:55:04;;;;;;;4.55;2.67;;;;;;;23.97;59.75;99482.03;1780899;80;21042;-72
2022/07/08 14:57:32;;;;;;;5.87;3.60;;;;;;;23.86;57.96;99486.38;1789447;79;20899;-71
2022/07/08 14:59:59;;;;;;;5.80;3.20;;;;;;;23.70;59.66;99481.56;1795973;79;21251;-71
2022/07/08 15:02:27;;;;;;;3.42;2.90;;;;;;;23.75;61.15;99484.10;1786760;79;20895;-73
2022/07/08 15:04:54;;;;;;;6.28;3.33;;;;;;;23.78;59.35;99481.82;1783935;80;21511;-71
2022/07/08 15:07:21;;;;;;;6.83;3.72;;;;;;;24.34;58.24;99484.11;1786953;79;21460;-73
2022/07/08 15:09:48;;;;;;;9.77;3.90;;;;;;;24.85;56.11;99479.48;1782399;80;22138;-71
2022/07/08 15:12:15;;;;;;;3.77;2.80;;;;;;;25.34;54.74;99477.03;1781113;80;21524;-71
2022/07/08 15:14:43;;;;;;;5.35;2.33;;;;;;;25.65;53.54;99481.14;1786945;79;21021;-72
2022/07/08 15:17:09;;;;;;;6.72;1.82;;;;;;;25.97;53.52;99476.98;1791104;79;20994;-70
2022/07/08 15:19:38;;;;;;;4.30;1.65;;;;;;;26.02;51.51;99476.70;1779802;80;20872;-70
2022/07/08 15:22:05;;;;;;;3.90;1.70;;;;;;;25.67;52.71;99469.77;1784765;80;20876;-74
2022/07/08 15:24:32;;;;;;;2.00;1.57;;;;;;;24.99;51.49;99468.88;1789649;79;21830;-71
2022/07/08 15:26:59;;;;;;;3.67;2.15;;;;;;;24.79;52.21;99466.59;1779954;80;21410;-71
2022/07/08 15:29:26;;;;;;;5.20;1.77;;;;;;;25.34;52.16;99472.33;1781541;80;20844;-69
2022/07/08 15:31:53;;;;;;;;;;;;;;;26.00;49.10;99473.50;1787090;79;20958;-71
2022/07/08 15:34:20;;;;;;;2.90;1.62;;;;;;;26.29;48.64;99470.00;1799476;78;20165;-70
2022/07/08 15:36:47;;;;;;;2.77;1.40;;;;;;;26.48;47.30;99471.38;1801049;78;21666;-68
2022/07/08 15:39:13;;;;;;;4.10;1.53;;;;;;;26.08;45.94;99470.33;1826018;78;20942;-70
2022/07/08 15:41:40;;;;;;;6.45;1.60;;;;;;;25.57;47.17;99468.94;1827321;78;22086;-71
2022/07/08 15:44:07;;;;;;;2.72;1.20;;;;;;;25.76;48.15;99477.25;1793617;78;20974;-70
2022/07/08 15:46:34;;;;;;;5.83;1.30;;;;;;;25.96;47.13;99475.37;1825096;78;20901;-68